Marian S Heiskell — WDD7538 — position and weather

sailwx.info

Track history (hours):
 
Tides and Currents Weather Stations Pressure Air Temp Water Temp Dewpoint Dewpoint Depression Visibility Wind Speed Wind Dir Waves Ship Positions

Marian S Heiskell

Owner: NYCL Acquisition LLC, Brooklyn, NY. More information available from US FCC via Universal Licensing System and Coast Guard Vessel Documentation Center.

Last reported at 2018-May-22 19:00 UTC. Time now 2018-May-22 19:16 UTC.
Position N 40°42' W 074°02'.

Length 20 m.

Type: Passenger vessel. MMSI: 367187770.

Date/timePositionNaut miles runAvg speedWind from/ knotsBaromVisibWave heightAir tempDewpointWater temp
2018-May-22 19:00N 40°42' W 074°02'1 0.9
2018-May-22 18:23N 40°42' W 074°01'1 2.3
2018-May-22 17:47N 40°44' W 074°02'2 2.8
2018-May-22 17:12N 40°42' W 074°01'211.5
2018-May-22 17:00N 40°44' W 074°01'3 5.1
2018-May-22 16:28N 40°42' W 074°02'1 2.1
2018-May-22 15:59N 40°42' W 074°01'1 2.7
2018-May-22 15:29N 40°44' W 074°01'1 2.2
2018-May-22 14:51N 40°42' W 074°01'1 1.2
2018-May-22 14:10N 40°43' W 074°01'3 0.2
2018-May-21 23:17N 40°40' W 074°01'2 6.3
2018-May-21 22:59N 40°42' W 074°01'1 2.2
2018-May-21 22:31N 40°43' W 074°02'1 2.3
2018-May-21 21:57N 40°42' W 074°01'1 1.8
2018-May-21 21:24N 40°43' W 074°02'1 1.4
2018-May-21 20:49N 40°42' W 074°01'1 1.8
2018-May-21 20:17N 40°43' W 074°02'1 2.3
2018-May-21 19:41N 40°42' W 074°01'211.6
2018-May-21 19:30N 40°44' W 074°01'3 5.1
2018-May-21 19:00N 40°41' W 074°02'1 1.8
2018-May-21 18:29N 40°42' W 074°01'2 2.9
2018-May-21 17:57N 40°44' W 074°01'2 2.1
2018-May-21 17:14N 40°42' W 074°01'1 2.0
2018-May-21 16:44N 40°43' W 074°02'1 1.0
2018-May-21 15:59N 40°42' W 074°01'1 1.9
2018-May-21 15:29N 40°43' W 074°02'2 0.2
2018-May-21 01:25N 40°41' W 074°01'1 0.9
2018-May-21 00:48N 40°41' W 074°01'1 0.9
2018-May-20 23:43N 40°42' W 074°00'0 0.2
2018-May-20 23:08N 40°42' W 074°00'1 2.8
2018-May-20 22:44N 40°41' W 074°01'1 0.9
2018-May-20 21:24N 40°42' W 074°00'1 0.7
2018-May-20 20:39N 40°41' W 074°01'0 0.1
2018-May-20 20:16N 40°41' W 074°01'0 0.1
2018-May-20 19:49N 40°41' W 074°01'0 0.6
2018-May-20 19:28N 40°41' W 074°01'0 0.3
2018-May-20 18:59N 40°41' W 074°00'0 0.5
2018-May-20 18:09N 40°41' W 074°01'1 2.3
2018-May-20 17:50N 40°42' W 074°00'1 2.5
2018-May-20 17:22N 40°41' W 074°01'1 1.3
2018-May-20 16:56N 40°41' W 074°01'0 0.2
2018-May-20 16:29N 40°41' W 074°01'1 0.0
2018-May-18 23:27N 40°40' W 074°01'3 6.7
2018-May-18 23:00N 40°43' W 074°01'1 1.6
2018-May-18 22:30N 40°43' W 074°02'1 1.5
2018-May-18 21:54N 40°42' W 074°01'2 3.1
2018-May-18 21:21N 40°44' W 074°01'2 3.0
2018-May-18 20:46N 40°42' W 074°01'2 2.8
2018-May-18 20:11N 40°44' W 074°01'210.4
2018-May-18 19:57N 40°41' W 074°02'1 2.6
2018-May-18 19:30N 40°42' W 074°01'1 2.8
2018-May-18 18:59N 40°44' W 074°01'2 2.7
2018-May-18 18:22N 40°42' W 074°01'3 5.4
2018-May-18 17:51N 40°45' W 074°01'3 4.3
2018-May-18 17:14N 40°42' W 074°01'2 2.9
2018-May-18 16:39N 40°44' W 074°01'317.1
2018-May-18 16:30N 40°41' W 074°03'2 3.1
2018-May-18 16:00N 40°42' W 074°01'1 2.4
2018-May-18 15:28N 40°43' W 074°01'2 2.8
2018-May-18 14:53N 40°42' W 074°01'2 2.9
2018-May-18 14:18N 40°43' W 074°01'3 0.2
2018-May-17 23:17N 40°40' W 074°01'2 6.8
2018-May-17 23:00N 40°42' W 074°01'1 1.7
2018-May-17 22:28N 40°43' W 074°01'1 2.7
2018-May-17 21:58N 40°42' W 074°01'1 2.1
2018-May-17 21:19N 40°43' W 074°01'1 1.8
2018-May-17 20:46N 40°42' W 074°01'2 3.1
2018-May-17 20:14N 40°44' W 074°01'2 9.8
2018-May-17 20:00N 40°42' W 074°02'1 1.5
2018-May-17 19:30N 40°42' W 074°01'1 2.2
2018-May-17 19:00N 40°43' W 074°01'1 2.3
2018-May-17 18:24N 40°42' W 074°01'2 2.6
2018-May-17 17:49N 40°43' W 074°01'1 2.3
2018-May-17 17:15N 40°42' W 074°01'1 1.7
2018-May-17 16:37N 40°43' W 074°02'2 8.5
2018-May-17 16:26N 40°42' W 074°02'1 2.2
2018-May-17 15:59N 40°42' W 074°01'1 1.1
2018-May-17 15:28N 40°43' W 074°01'1 1.4
2018-May-17 14:53N 40°42' W 074°01'1 1.3
2018-May-17 14:08N 40°43' W 074°01'  
2018-May-13 23:17N 40°40' W 074°01'3 9.7
2018-May-13 23:00N 40°43' W 074°01'1 2.9
2018-May-13 22:31N 40°42' W 074°02'1 1.8
2018-May-13 22:00N 40°42' W 074°01'0 1.0
2018-May-13 21:31N 40°42' W 074°02'1 2.0
2018-May-13 21:00N 40°42' W 074°01'2 2.6
2018-May-13 20:20N 40°43' W 074°01'1 1.3
2018-May-13 19:28N 40°42' W 074°01'1 1.2
2018-May-13 18:57N 40°43' W 074°02'1 0.8
2018-May-13 18:17N 40°42' W 074°01'1 1.0
2018-May-13 17:47N 40°43' W 074°02'0 0.6
2018-May-13 17:05N 40°42' W 074°01'0 0.9
2018-May-13 16:35N 40°43' W 074°02'1 2.5
2018-May-13 16:05N 40°42' W 074°00'1 5.5
2018-May-13 15:58N 40°42' W 074°01'1 2.4
2018-May-13 15:29N 40°43' W 074°01'2 2.7
2018-May-13 14:53N 40°42' W 074°01'2 2.7
2018-May-13 14:13N 40°44' W 074°01'  
Track history (hours):
 
Tides and Currents Weather Stations Pressure Air Temp Water Temp Dewpoint Dewpoint Depression Visibility Wind Speed Wind Dir Waves Ship Positions

Marian S Heiskell

Owner: NYCL Acquisition LLC, Brooklyn, NY. More information available from US FCC via Universal Licensing System and Coast Guard Vessel Documentation Center.

Last reported at 2018-May-22 19:00 UTC. Time now 2018-May-22 19:16 UTC.
Position N 40°42' W 074°02'.

Length 20 m.

Type: Passenger vessel. MMSI: 367187770.

Date/timePositionNaut miles runAvg speedWind from/ knotsBaromVisibWave heightAir tempDewpointWater temp
2018-May-22 19:00N 40°42' W 074°02'1 0.9
2018-May-22 18:23N 40°42' W 074°01'1 2.3
2018-May-22 17:47N 40°44' W 074°02'2 2.8
2018-May-22 17:12N 40°42' W 074°01'211.5
2018-May-22 17:00N 40°44' W 074°01'3 5.1
2018-May-22 16:28N 40°42' W 074°02'1 2.1
2018-May-22 15:59N 40°42' W 074°01'1 2.7
2018-May-22 15:29N 40°44' W 074°01'1 2.2
2018-May-22 14:51N 40°42' W 074°01'1 1.2
2018-May-22 14:10N 40°43' W 074°01'3 0.2
2018-May-21 23:17N 40°40' W 074°01'2 6.3
2018-May-21 22:59N 40°42' W 074°01'1 2.2
2018-May-21 22:31N 40°43' W 074°02'1 2.3
2018-May-21 21:57N 40°42' W 074°01'1 1.8
2018-May-21 21:24N 40°43' W 074°02'1 1.4
2018-May-21 20:49N 40°42' W 074°01'1 1.8
2018-May-21 20:17N 40°43' W 074°02'1 2.3
2018-May-21 19:41N 40°42' W 074°01'211.6
2018-May-21 19:30N 40°44' W 074°01'3 5.1
2018-May-21 19:00N 40°41' W 074°02'1 1.8
2018-May-21 18:29N 40°42' W 074°01'2 2.9
2018-May-21 17:57N 40°44' W 074°01'2 2.1
2018-May-21 17:14N 40°42' W 074°01'1 2.0
2018-May-21 16:44N 40°43' W 074°02'1 1.0
2018-May-21 15:59N 40°42' W 074°01'1 1.9
2018-May-21 15:29N 40°43' W 074°02'2 0.2
2018-May-21 01:25N 40°41' W 074°01'1 0.9
2018-May-21 00:48N 40°41' W 074°01'1 0.9
2018-May-20 23:43N 40°42' W 074°00'0 0.2
2018-May-20 23:08N 40°42' W 074°00'1 2.8
2018-May-20 22:44N 40°41' W 074°01'1 0.9
2018-May-20 21:24N 40°42' W 074°00'1 0.7
2018-May-20 20:39N 40°41' W 074°01'0 0.1
2018-May-20 20:16N 40°41' W 074°01'0 0.1
2018-May-20 19:49N 40°41' W 074°01'0 0.6
2018-May-20 19:28N 40°41' W 074°01'0 0.3
2018-May-20 18:59N 40°41' W 074°00'0 0.5
2018-May-20 18:09N 40°41' W 074°01'1 2.3
2018-May-20 17:50N 40°42' W 074°00'1 2.5
2018-May-20 17:22N 40°41' W 074°01'1 1.3
2018-May-20 16:56N 40°41' W 074°01'0 0.2
2018-May-20 16:29N 40°41' W 074°01'1 0.0
2018-May-18 23:27N 40°40' W 074°01'3 6.7
2018-May-18 23:00N 40°43' W 074°01'1 1.6
2018-May-18 22:30N 40°43' W 074°02'1 1.5
2018-May-18 21:54N 40°42' W 074°01'2 3.1
2018-May-18 21:21N 40°44' W 074°01'2 3.0
2018-May-18 20:46N 40°42' W 074°01'2 2.8
2018-May-18 20:11N 40°44' W 074°01'210.4
2018-May-18 19:57N 40°41' W 074°02'1 2.6
2018-May-18 19:30N 40°42' W 074°01'1 2.8
2018-May-18 18:59N 40°44' W 074°01'2 2.7
2018-May-18 18:22N 40°42' W 074°01'3 5.4
2018-May-18 17:51N 40°45' W 074°01'3 4.3
2018-May-18 17:14N 40°42' W 074°01'2 2.9
2018-May-18 16:39N 40°44' W 074°01'317.1
2018-May-18 16:30N 40°41' W 074°03'2 3.1
2018-May-18 16:00N 40°42' W 074°01'1 2.4
2018-May-18 15:28N 40°43' W 074°01'2 2.8
2018-May-18 14:53N 40°42' W 074°01'2 2.9
2018-May-18 14:18N 40°43' W 074°01'3 0.2
2018-May-17 23:17N 40°40' W 074°01'2 6.8
2018-May-17 23:00N 40°42' W 074°01'1 1.7
2018-May-17 22:28N 40°43' W 074°01'1 2.7
2018-May-17 21:58N 40°42' W 074°01'1 2.1
2018-May-17 21:19N 40°43' W 074°01'1 1.8
2018-May-17 20:46N 40°42' W 074°01'2 3.1
2018-May-17 20:14N 40°44' W 074°01'2 9.8
2018-May-17 20:00N 40°42' W 074°02'1 1.5
2018-May-17 19:30N 40°42' W 074°01'1 2.2
2018-May-17 19:00N 40°43' W 074°01'1 2.3
2018-May-17 18:24N 40°42' W 074°01'2 2.6
2018-May-17 17:49N 40°43' W 074°01'1 2.3
2018-May-17 17:15N 40°42' W 074°01'1 1.7
2018-May-17 16:37N 40°43' W 074°02'2 8.5
2018-May-17 16:26N 40°42' W 074°02'1 2.2
2018-May-17 15:59N 40°42' W 074°01'1 1.1
2018-May-17 15:28N 40°43' W 074°01'1 1.4
2018-May-17 14:53N 40°42' W 074°01'1 1.3
2018-May-17 14:08N 40°43' W 074°01'  
2018-May-13 23:17N 40°40' W 074°01'3 9.7
2018-May-13 23:00N 40°43' W 074°01'1 2.9
2018-May-13 22:31N 40°42' W 074°02'1 1.8
2018-May-13 22:00N 40°42' W 074°01'0 1.0
2018-May-13 21:31N 40°42' W 074°02'1 2.0
2018-May-13 21:00N 40°42' W 074°01'2 2.6
2018-May-13 20:20N 40°43' W 074°01'1 1.3
2018-May-13 19:28N 40°42' W 074°01'1 1.2
2018-May-13 18:57N 40°43' W 074°02'1 0.8
2018-May-13 18:17N 40°42' W 074°01'1 1.0
2018-May-13 17:47N 40°43' W 074°02'0 0.6
2018-May-13 17:05N 40°42' W 074°01'0 0.9
2018-May-13 16:35N 40°43' W 074°02'1 2.5
2018-May-13 16:05N 40°42' W 074°00'1 5.5
2018-May-13 15:58N 40°42' W 074°01'1 2.4
2018-May-13 15:29N 40°43' W 074°01'2 2.7
2018-May-13 14:53N 40°42' W 074°01'2 2.7
2018-May-13 14:13N 40°44' W 074°01'  

Dump ship's entire track history